Terminal Aerodrome Forecast
Issued by NWS Caribou, ME

Home | Current Version | Previous Version | Text Only | Print | Product List | Glossary On
Versions: 1 2 3 4 5 6 7 8 9 10 11 12 13 14 15 16 17 18 19 20 21 22 23 24 25
000
FTUS41 KCAR 010115 AAA
TAFBGR
TAF AMD
KBGR 010115Z 0101/0124 31008KT P6SM SCT080
     FM010400 34004KT P6SM SCT120
     FM011000 01007KT P6SM FEW250
     FM012000 20006KT P6SM SCT250=

USA.gov is the U.S. government's official web portal to all federal, state and local government web resources and services.